Time;durP1;ratioP1;P1;durP2;ratioP2;P2;SDS_P1;SDS_P2;PMS_P1;PMS_P2;Temp;Humidity;BMP_temperature;BMP_pressure;BME280_temperature;BME280_humidity;BME280_pressure;Samples;Min_cycle;Max_cycle;Signal;HPM_P1;HPM_P2
2022/04/26 03:37:22;;;;;;;10.10;4.20;;;;;;;13.49;62.61;98744.97;25139;1313;3054713;-67
2022/04/26 03:39:51;;;;;;;7.30;3.90;;;;;;;13.31;63.15;98745.91;25115;1313;3026600;-67
2022/04/26 03:42:24;;;;;;;11.60;4.50;;;;;;;13.10;63.75;98743.41;25189;1313;3026817;-68
2022/04/26 03:44:53;;;;;;;10.50;4.30;;;;;;;12.93;64.36;98750.19;25122;1312;3026306;-68
2022/04/26 03:47:22;;;;;;;10.10;4.20;;;;;;;12.82;64.63;98751.27;25173;1313;3054040;-66
2022/04/26 03:49:52;;;;;;;8.40;4.30;;;;;;;12.83;64.58;98748.92;25148;1312;3026179;-67
2022/04/26 03:52:22;;;;;;;10.60;4.30;;;;;;;12.67;65.49;98753.18;25139;1313;3026763;-67
2022/04/26 03:54:51;;;;;;;12.10;4.70;;;;;;;12.65;65.55;98751.77;25176;1313;3026091;-67
2022/04/26 03:57:23;;;;;;;9.70;4.00;;;;;;;12.74;65.01;98754.19;25151;1313;3059353;-66
2022/04/26 03:59:53;;;;;;;14.50;4.50;;;;;;;12.80;64.88;98752.52;25116;1312;3027062;-69
2022/04/26 04:02:24;;;;;;;9.20;4.50;;;;;;;12.87;64.65;98750.48;25167;1313;3054682;-67
2022/04/26 04:04:53;;;;;;;14.30;4.90;;;;;;;12.96;64.24;98753.50;25114;1315;3026890;-66
2022/04/26 04:07:24;;;;;;;17.10;6.00;;;;;;;12.98;64.24;98756.13;25187;1313;3052623;-67
2022/04/26 04:09:56;;;;;;;14.60;5.60;;;;;;;12.98;64.26;98752.48;25142;1313;3026452;-67
2022/04/26 04:12:25;;;;;;;16.30;6.60;;;;;;;13.07;64.41;98752.20;25124;1312;3026931;-67
2022/04/26 04:14:57;;;;;;;11.50;5.40;;;;;;;13.19;63.58;98759.71;25154;1313;3051549;-66
2022/04/26 04:17:26;;;;;;;10.80;5.70;;;;;;;13.28;63.35;98763.00;25177;1313;3028530;-67
2022/04/26 04:19:55;;;;;;;16.80;6.60;;;;;;;13.28;63.45;98765.14;25156;1313;3048775;-67
2022/04/26 04:22:24;;;;;;;13.00;6.00;;;;;;;13.33;63.28;98764.70;25151;1313;3026283;-66
2022/04/26 04:24:53;;;;;;;16.70;8.10;;;;;;;13.39;62.90;98762.66;25164;1313;3070787;-66
2022/04/26 04:27:22;;;;;;;18.20;7.20;;;;;;;13.38;63.30;98761.88;25132;1313;3028629;-67
2022/04/26 04:29:52;;;;;;;12.30;6.60;;;;;;;13.46;63.03;98760.34;25149;1313;3053434;-67
2022/04/26 04:32:22;;;;;;;16.50;7.00;;;;;;;13.56;62.98;98755.83;25155;1312;3026384;-67
2022/04/26 04:34:51;;;;;;;16.70;6.80;;;;;;;13.58;62.85;98757.03;25125;1313;3028125;-68
2022/04/26 04:37:23;;;;;;;14.80;6.90;;;;;;;13.67;62.88;98758.53;25156;1315;3051702;-67
2022/04/26 04:39:54;;;;;;;12.50;5.90;;;;;;;13.84;62.23;98753.63;25148;1313;3028563;-68
2022/04/26 04:42:23;;;;;;;10.30;4.70;;;;;;;13.90;61.68;98756.36;25141;1312;3028668;-67
2022/04/26 04:44:52;;;;;;;8.80;4.30;;;;;;;13.97;61.51;98757.41;25165;1313;3051236;-66
2022/04/26 04:47:21;;;;;;;7.30;4.20;;;;;;;14.04;61.37;98754.33;25094;1313;3028861;-70
2022/04/26 04:49:50;;;;;;;10.10;4.00;;;;;;;14.08;61.28;98757.32;25148;1313;3055502;-68
2022/04/26 04:52:19;;;;;;;9.10;4.70;;;;;;;14.15;61.07;98760.60;25133;1313;3028213;-68
2022/04/26 04:54:50;;;;;;;10.00;4.40;;;;;;;14.21;60.77;98761.52;25163;1313;3027543;-67
2022/04/26 04:57:21;;;;;;;16.00;4.60;;;;;;;14.28;60.89;98761.61;25140;1313;3028280;-68
2022/04/26 04:59:50;;;;;;;9.70;4.50;;;;;;;14.30;60.62;98765.48;25191;1313;3026466;-69
2022/04/26 05:02:19;;;;;;;11.30;4.10;;;;;;;14.35;60.64;98762.27;25114;1313;3070501;-67
2022/04/26 05:04:51;;;;;;;8.20;4.50;;;;;;;14.34;60.45;98765.16;25144;1313;3026637;-67
2022/04/26 05:07:20;;;;;;;12.90;4.60;;;;;;;14.36;60.73;98768.48;25165;1313;3026850;-67
2022/04/26 05:09:52;;;;;;;12.50;3.70;;;;;;;14.42;60.21;98769.95;25147;1313;3070177;-68
2022/04/26 05:12:21;;;;;;;8.40;3.70;;;;;;;14.49;59.56;98768.27;25161;1313;3027684;-69
2022/04/26 05:14:50;;;;;;;10.60;5.10;;;;;;;14.49;59.27;98767.21;25169;1313;3026873;-66
2022/04/26 05:17:19;;;;;;;13.40;4.50;;;;;;;14.51;59.58;98769.30;25149;1313;3068003;-67
2022/04/26 05:19:49;;;;;;;11.30;4.60;;;;;;;14.54;59.40;98766.16;25185;1313;3026946;-67
2022/04/26 05:22:18;;;;;;;11.10;4.50;;;;;;;14.57;59.58;98761.73;25145;1315;3026879;-67
2022/04/26 05:24:57;;;;;;;13.60;3.90;;;;;;;14.68;59.03;98765.61;25157;1315;3070353;-67
2022/04/26 05:27:31;;;;;;;11.00;4.10;;;;;;;14.67;58.71;98768.80;25144;1316;3051762;-65
2022/04/26 05:30:05;;;;;;;13.30;4.10;;;;;;;14.74;58.74;98766.59;25216;1316;3055436;-67
2022/04/26 05:32:34;;;;;;;10.70;3.50;;;;;;;14.76;57.88;98766.29;25140;1316;3026461;-67
2022/04/26 05:35:07;;;;;;;13.70;4.00;;;;;;;14.82;56.88;98768.52;25147;1316;3026696;-66
2022/04/26 05:37:40;;;;;;;6.10;3.50;;;;;;;14.86;57.63;98769.92;25182;1316;3054252;-67
2022/04/26 05:40:09;;;;;;;8.90;3.30;;;;;;;14.89;55.84;98777.30;25140;1316;3026567;-67
2022/04/26 05:42:41;;;;;;;15.10;4.00;;;;;;;14.92;56.19;98772.46;25141;1316;3057263;-67
2022/04/26 05:45:10;;;;;;;11.30;3.50;;;;;;;15.09;56.28;98772.12;25134;1315;3026530;-67
2022/04/26 05:47:41;;;;;;;5.70;3.20;;;;;;;15.21;55.79;98769.85;25168;1316;3054812;-68
2022/04/26 05:50:10;;;;;;;12.90;4.20;;;;;;;15.32;55.34;98769.55;25194;1312;3027099;-69
2022/04/26 05:52:41;;;;;;;9.50;3.50;;;;;;;15.40;54.95;98770.37;25111;1313;3026938;-66
2022/04/26 05:55:14;;;;;;;13.50;3.60;;;;;;;15.55;54.24;98767.07;25137;1316;3026790;-67
2022/04/26 05:57:43;;;;;;;10.60;4.00;;;;;;;15.69;54.13;98767.23;25176;1312;3026409;-67
2022/04/26 06:00:13;;;;;;;11.30;3.50;;;;;;;15.79;53.89;98769.30;25142;1313;3026065;-67
2022/04/26 06:02:42;;;;;;;6.30;3.40;;;;;;;15.92;53.59;98772.66;25114;1313;3026463;-66
2022/04/26 06:05:14;;;;;;;9.80;3.90;;;;;;;16.02;53.62;98766.66;25168;1315;3026333;-66
2022/04/26 06:07:52;;;;;;;8.60;3.70;;;;;;;16.07;53.42;98763.12;25115;1313;3053084;-68
2022/04/26 06:10:22;;;;;;;8.40;3.70;;;;;;;16.22;53.71;98765.80;25122;1316;3026370;-69
2022/04/26 06:12:52;;;;;;;12.80;3.20;;;;;;;16.29;52.87;98769.58;25106;1313;3028575;-68
2022/04/26 06:15:22;;;;;;;10.60;3.20;;;;;;;16.41;52.47;98768.61;25151;1313;3026718;-68
2022/04/26 06:17:52;;;;;;;10.60;3.40;;;;;;;16.56;52.61;98764.81;25108;1313;3026949;-68
2022/04/26 06:20:23;;;;;;;4.90;2.50;;;;;;;16.69;52.18;98766.44;25161;1313;3029740;-67
2022/04/26 06:22:53;;;;;;;8.10;2.80;;;;;;;16.76;51.44;98765.42;25156;1313;3055151;-68
2022/04/26 06:25:22;;;;;;;5.60;3.00;;;;;;;16.81;51.80;98770.80;25154;1313;3029419;-69
2022/04/26 06:27:52;;;;;;;5.40;2.90;;;;;;;16.86;51.95;98775.43;25113;1313;3026276;-68
2022/04/26 06:30:29;;;;;;;6.30;2.90;;;;;;;16.95;51.49;98773.98;25142;1315;3048493;-67
2022/04/26 06:33:03;;;;;;;4.80;2.40;;;;;;;16.96;50.17;98778.40;25116;1313;3054278;-69
2022/04/26 06:35:32;;;;;;;8.50;2.80;;;;;;;17.05;50.87;98775.55;25182;1313;3026651;-67
2022/04/26 06:38:02;;;;;;;7.20;2.70;;;;;;;17.08;49.33;98781.40;25132;1316;3027610;-67
2022/04/26 06:40:31;;;;;;;11.50;3.10;;;;;;;17.10;50.40;98776.77;25149;1313;3030283;-69
2022/04/26 06:43:00;;;;;;;10.30;2.50;;;;;;;17.19;50.52;98774.29;25162;1313;3026653;-67
2022/04/26 06:45:34;;;;;;;7.40;2.70;;;;;;;17.30;49.32;98770.38;25116;1319;3058830;-69
2022/04/26 06:48:09;;;;;;;5.00;2.20;;;;;;;17.34;48.38;98777.06;25150;1313;3026519;-66
2022/04/26 06:50:38;;;;;;;7.50;2.30;;;;;;;17.48;48.15;98767.38;25177;1313;3027260;-66
2022/04/26 06:53:07;;;;;;;3.10;2.00;;;;;;;17.64;47.77;98772.52;25128;1313;3028947;-67
2022/04/26 06:55:36;;;;;;;4.60;1.60;;;;;;;17.59;46.23;98767.70;25100;1316;3051801;-67
2022/04/26 06:58:08;;;;;;;3.30;1.60;;;;;;;17.72;45.97;98769.62;25201;1313;3028368;-67
2022/04/26 07:00:38;;;;;;;8.20;2.40;;;;;;;17.81;45.68;98764.27;25145;1313;3056193;-67
2022/04/26 07:03:07;;;;;;;5.90;1.80;;;;;;;17.91;44.49;98770.53;25128;1313;3028124;-68
2022/04/26 07:05:36;;;;;;;2.50;1.70;;;;;;;17.99;44.74;98769.16;25117;1313;3054533;-67
2022/04/26 07:08:08;;;;;;;7.90;1.60;;;;;;;18.10;44.31;98763.23;25156;1313;3026368;-67
2022/04/26 07:10:38;;;;;;;6.20;2.10;;;;;;;18.11;44.20;98767.73;25152;1316;3026611;-63
2022/04/26 07:13:18;;;;;;;8.60;2.00;;;;;;;18.10;43.62;98767.34;24840;1316;3450469;-66
2022/04/26 07:15:47;;;;;;;6.40;2.20;;;;;;;18.04;44.09;98774.62;25134;1313;3051721;-67
2022/04/26 07:18:26;;;;;;;4.70;1.90;;;;;;;18.05;44.20;98772.42;25155;1313;3071533;-67
2022/04/26 07:20:58;;;;;;;8.00;2.00;;;;;;;18.04;44.60;98774.61;25161;1316;3026461;-65
2022/04/26 07:23:28;;;;;;;5.30;1.90;;;;;;;18.08;44.70;98778.83;25154;1313;3026878;-67
2022/04/26 07:25:57;;;;;;;5.40;1.90;;;;;;;18.07;44.71;98774.70;25165;1313;3026502;-63
2022/04/26 07:28:27;;;;;;;4.90;2.00;;;;;;;18.21;44.83;98769.91;25132;1315;3049374;-67
2022/04/26 07:30:57;;;;;;;3.80;1.80;;;;;;;18.37;44.22;98773.94;25152;1315;3028476;-65
2022/04/26 07:36:22;;;;;;;4.80;2.40;;;;;;;18.60;44.71;98765.91;25179;1313;3059721;-66
2022/04/26 07:38:54;;;;;;;7.30;2.10;;;;;;;18.74;45.01;98761.95;25143;1313;3052568;-66
2022/04/26 07:41:23;;;;;;;6.20;2.00;;;;;;;18.94;45.06;98764.95;25186;1313;3027243;-68
2022/04/26 07:43:54;;;;;;;7.10;2.00;;;;;;;18.96;44.44;98768.88;25230;1313;3058061;-63
2022/04/26 07:46:24;;;;;;;8.00;2.30;;;;;;;19.00;44.48;98770.88;25629;1313;3026421;-64
2022/04/26 07:48:55;;;;;;;7.90;2.40;;;;;;;18.99;44.53;98766.77;25603;1313;3027651;-69
2022/04/26 07:51:25;;;;;;;6.50;2.50;;;;;;;18.90;44.84;98768.43;25375;1318;3026894;-67
2022/04/26 07:53:54;;;;;;;5.10;2.20;;;;;;;18.80;44.65;98767.09;25164;1313;3029660;-66
2022/04/26 07:56:23;;;;;;;7.30;2.00;;;;;;;18.76;44.53;98767.84;25169;1313;3055124;-67
2022/04/26 07:58:54;;;;;;;5.30;2.10;;;;;;;18.79;44.90;98777.36;25185;1313;3026472;-68
2022/04/26 08:01:25;;;;;;;5.50;2.30;;;;;;;18.83;45.52;98769.46;25146;1313;3027712;-71
2022/04/26 08:03:54;;;;;;;13.30;2.40;;;;;;;18.97;45.73;98770.04;25151;1313;3026486;-67
2022/04/26 08:06:25;;;;;;;7.40;2.10;;;;;;;18.97;45.78;98773.20;25144;1313;3026876;-68
2022/04/26 08:09:07;;;;;;;5.10;2.40;;;;;;;19.16;45.84;98771.39;25139;1313;3055221;-68
2022/04/26 08:11:37;;;;;;;4.40;2.30;;;;;;;19.31;45.31;98764.56;25107;1313;3026412;-64
2022/04/26 08:14:07;;;;;;;10.80;2.30;;;;;;;19.34;45.14;98768.17;25064;1316;3028922;-68
2022/04/26 08:16:42;;;;;;;6.80;2.60;;;;;;;19.30;45.08;98767.70;25163;1314;3055906;-65
2022/04/26 08:19:11;;;;;;;5.50;1.80;;;;;;;19.32;44.37;98778.19;25113;1312;3026185;-67
2022/04/26 08:21:41;;;;;;;2.90;1.60;;;;;;;19.35;43.80;98776.05;25098;1316;3051659;-66
2022/04/26 08:29:49;;;;;;;4.70;1.90;;;;;;;19.44;43.45;98765.86;25152;1316;3070915;-64
2022/04/26 08:32:23;;;;;;;3.70;1.60;;;;;;;19.52;42.33;98766.44;25196;1313;3049244;-64
2022/04/26 08:37:29;;;;;;;4.00;1.60;;;;;;;19.75;41.81;98775.92;31616;1316;3026807;-65
2022/04/26 08:40:04;;;;;;;4.90;1.70;;;;;;;19.88;41.33;98770.42;25040;1319;3026733;-67
2022/04/26 08:42:37;;;;;;;3.50;1.70;;;;;;;20.04;40.54;98765.33;25116;1319;3029938;-66
2022/04/26 08:45:08;;;;;;;4.30;1.80;;;;;;;20.00;40.49;98773.81;25069;1319;3055221;-66
2022/04/26 08:53:20;;;;;;;7.40;1.50;;;;;;;20.14;39.78;98768.63;25093;1316;3052268;-65
2022/04/26 08:55:51;;;;;;;2.60;1.60;;;;;;;20.13;39.65;98768.39;25087;1316;3026923;-65
2022/04/26 08:58:21;;;;;;;5.20;1.60;;;;;;;20.15;39.12;98765.40;25118;1319;3028629;-63
2022/04/26 09:01:18;;;;;;;7.20;1.70;;;;;;;20.26;39.14;98757.19;25124;1318;3026538;-68
2022/04/26 09:03:55;;;;;;;6.50;1.40;;;;;;;20.35;39.80;98755.27;25187;1316;3054832;-65
2022/04/26 09:06:30;;;;;;;8.60;1.50;;;;;;;20.55;39.90;98762.16;25133;1316;3026370;-68
2022/04/26 09:09:12;;;;;;;5.90;1.40;;;;;;;20.60;39.54;98766.08;25102;1316;3050973;-67
2022/04/26 09:11:44;;;;;;;3.10;1.80;;;;;;;20.63;39.54;98757.11;25107;1316;3055750;-68
2022/04/26 09:14:34;;;;;;;7.60;1.70;;;;;;;20.67;39.10;98755.46;25186;1316;3026342;-66
2022/04/26 09:17:07;;;;;;;5.10;1.80;;;;;;;20.62;39.27;98758.27;25140;1316;3071226;-65
2022/04/26 09:19:47;;;;;;;4.60;1.90;;;;;;;20.76;38.83;98753.38;25108;1316;3050664;-67
2022/04/26 09:22:21;;;;;;;8.60;2.20;;;;;;;20.83;38.53;98768.27;25155;1312;3055642;-68
2022/04/26 09:25:03;;;;;;;5.20;1.90;;;;;;;20.63;38.75;98772.08;25181;1313;3028740;-70
2022/04/26 09:27:41;;;;;;;4.10;2.10;;;;;;;20.76;39.00;98764.18;25168;1313;3059060;-68
2022/04/26 09:30:12;;;;;;;5.50;1.80;;;;;;;20.83;39.00;98768.20;25136;1316;3050628;-66
2022/04/26 09:32:46;;;;;;;4.30;1.80;;;;;;;20.93;39.20;98768.15;25166;1316;3026569;-70
2022/04/26 09:35:23;;;;;;;6.90;1.70;;;;;;;21.06;39.16;98764.02;25151;1316;3052239;-66
2022/04/26 09:37:54;;;;;;;4.60;1.80;;;;;;;21.23;38.60;98767.06;25138;1313;3071070;-67
2022/04/26 09:40:31;;;;;;;4.80;1.70;;;;;;;21.18;38.19;98760.16;25118;1316;3026098;-68
2022/04/26 09:43:00;;;;;;;2.80;1.40;;;;;;;21.23;38.24;98760.08;25154;1314;3050646;-67
2022/04/26 09:45:30;;;;;;;7.30;1.70;;;;;;;21.21;38.19;98765.48;25141;1316;3028462;-69
2022/04/26 09:47:59;;;;;;;8.40;1.70;;;;;;;21.41;37.63;98761.77;25112;1319;3028556;-69
2022/04/26 09:50:28;;;;;;;3.60;1.80;;;;;;;21.55;37.12;98773.95;25170;1314;3052429;-68
2022/04/26 09:52:57;;;;;;;7.90;1.50;;;;;;;21.40;36.92;98769.63;25154;1316;3029592;-71
2022/04/26 09:55:30;;;;;;;4.20;1.50;;;;;;;21.24;36.78;98769.39;25096;1317;3027550;-68
2022/04/26 09:57:59;;;;;;;3.30;1.40;;;;;;;21.30;37.11;98762.50;25162;1313;3026738;-68
2022/04/26 10:00:28;;;;;;;3.10;1.70;;;;;;;21.24;36.45;98760.85;25111;1319;3027109;-69
2022/04/26 10:03:02;;;;;;;3.80;1.30;;;;;;;21.18;36.99;98762.66;25098;1315;3047623;-69
2022/04/26 10:05:32;;;;;;;4.90;1.60;;;;;;;21.18;37.29;98770.44;25087;1316;3026457;-69
2022/04/26 10:08:00;;;;;;;3.80;1.30;;;;;;;21.26;37.04;98764.54;25025;1316;3027026;-68
2022/04/26 10:10:30;;;;;;;6.50;1.60;;;;;;;21.39;37.58;98758.38;25107;1316;3048248;-68
2022/04/26 10:15:55;;;;;;;4.00;1.80;;;;;;;21.90;37.17;98758.73;25134;1316;3071844;-70
2022/04/26 10:18:31;;;;;;;4.50;1.20;;;;;;;22.01;36.88;98752.43;25099;1318;3026129;-68
2022/04/26 10:21:03;;;;;;;5.30;1.50;;;;;;;21.91;36.76;98765.83;25109;1316;3051390;-69
2022/04/26 10:23:51;;;;;;;6.10;1.60;;;;;;;21.96;36.37;98758.38;25151;1316;3026492;-70
2022/04/26 10:29:02;;;;;;;7.40;1.50;;;;;;;22.05;36.12;98763.14;25150;1313;3027061;-69
2022/04/26 10:31:35;;;;;;;6.10;1.40;;;;;;;21.97;36.19;98770.46;25153;1316;3055298;-69
2022/04/26 10:34:31;;;;;;;5.00;1.20;;;;;;;22.13;35.63;98756.68;25148;1313;3054515;-68
2022/04/26 10:37:11;;;;;;;9.10;1.60;;;;;;;22.25;35.57;98758.73;25160;1313;3071040;-69
2022/04/26 10:39:44;;;;;;;6.80;1.40;;;;;;;22.09;34.91;98759.66;25159;1313;3052665;-70
2022/04/26 10:42:15;;;;;;;4.00;1.30;;;;;;;22.27;34.88;98773.53;25108;1316;3026917;-70
2022/04/26 10:44:45;;;;;;;5.90;1.70;;;;;;;22.17;34.50;98774.71;25161;1313;3028040;-67
2022/04/26 10:47:23;;;;;;;5.80;1.40;;;;;;;22.19;34.56;98764.33;25134;1316;3026778;-70
2022/04/26 10:49:53;;;;;;;10.00;1.30;;;;;;;22.11;34.51;98767.92;25157;1316;3053473;-69
2022/04/26 10:52:23;;;;;;;5.60;1.50;;;;;;;22.26;34.53;98764.04;25171;1316;3026561;-69
2022/04/26 10:54:58;;;;;;;7.80;1.90;;;;;;;22.16;34.31;98778.73;25183;1316;3026495;-68
2022/04/26 10:57:46;;;;;;;5.40;1.70;;;;;;;22.06;34.56;98771.19;25123;1316;3071500;-69
2022/04/26 11:00:23;;;;;;;8.20;1.90;;;;;;;22.29;34.02;98771.48;25133;1316;3052196;-70
2022/04/26 11:03:00;;;;;;;8.70;1.60;;;;;;;22.35;33.83;98780.40;25093;1315;3055127;-68
2022/04/26 11:05:32;;;;;;;5.10;1.40;;;;;;;22.46;33.75;98763.46;25163;1315;3055797;-69
2022/04/26 11:08:09;;;;;;;8.30;1.80;;;;;;;22.53;33.80;98764.66;25128;1316;3059260;-69
2022/04/26 11:13:35;;;;;;;7.90;1.50;;;;;;;22.73;33.56;98757.23;25149;1316;3053456;-70
2022/04/26 11:16:06;;;;;;;4.00;1.40;;;;;;;22.79;33.56;98758.73;25145;1316;3050352;-70
2022/04/26 11:18:37;;;;;;;7.80;1.60;;;;;;;22.54;33.53;98751.70;25161;1316;3026737;-71
2022/04/26 11:21:06;;;;;;;3.80;1.20;;;;;;;22.47;34.25;98764.95;25144;1316;3027041;-69
2022/04/26 11:29:23;;;;;;;3.90;1.50;;;;;;;22.60;34.57;98753.09;25137;1314;3049848;-69
2022/04/26 11:31:54;;;;;;;6.20;1.60;;;;;;;22.72;34.39;98748.31;25132;1316;3054937;-67
2022/04/26 11:34:43;;;;;;;7.90;1.30;;;;;;;22.98;33.99;98738.70;25143;1315;3026297;-68
2022/04/26 11:37:14;;;;;;;8.00;1.80;;;;;;;23.21;33.80;98744.02;25167;1316;3059394;-70
2022/04/26 11:39:43;;;;;;;6.40;1.50;;;;;;;23.17;33.26;98745.20;25116;1316;3026719;-68
2022/04/26 11:42:14;;;;;;;6.50;1.40;;;;;;;23.03;33.35;98742.88;25194;1316;3055309;-71
2022/04/26 11:45:14;;;;;;;8.30;2.30;;;;;;;23.25;33.42;98733.90;25162;1316;3026732;-71
2022/04/26 11:47:47;;;;;;;3.90;1.50;;;;;;;23.35;32.66;98745.20;25089;1315;3050853;-69
2022/04/26 11:50:20;;;;;;;5.80;1.50;;;;;;;23.28;32.96;98744.13;25454;1316;3053594;-68
2022/04/26 11:52:50;;;;;;;4.80;1.80;;;;;;;23.36;33.01;98742.73;25501;1314;3026466;-67
2022/04/26 11:55:27;;;;;;;3.80;1.60;;;;;;;23.39;33.29;98740.58;25504;1315;3026543;-71
2022/04/26 11:58:10;;;;;;;6.00;1.60;;;;;;;23.52;32.89;98734.98;25125;1316;3050417;-70
2022/04/26 12:01:02;;;;;;;3.30;1.40;;;;;;;23.42;32.41;98738.22;25137;1316;3055062;-70
2022/04/26 12:03:38;;;;;;;3.30;1.50;;;;;;;23.45;32.92;98737.95;25176;1316;3055259;-70
2022/04/26 12:06:17;;;;;;;8.40;1.80;;;;;;;23.38;33.09;98741.35;25109;1315;3058796;-69
2022/04/26 12:08:48;;;;;;;7.30;1.80;;;;;;;23.63;32.95;98736.27;25135;1315;3052789;-70
2022/04/26 12:11:24;;;;;;;6.60;1.70;;;;;;;23.92;32.73;98736.77;25111;1316;3026979;-69
2022/04/26 12:14:14;;;;;;;8.20;1.90;;;;;;;23.95;32.56;98739.95;25136;1316;3053406;-70
2022/04/26 12:16:47;;;;;;;4.30;1.60;;;;;;;24.02;32.46;98743.23;25121;1316;3070236;-70
2022/04/26 12:19:16;;;;;;;8.20;1.70;;;;;;;24.05;31.81;98749.75;25153;1316;3026949;-69
2022/04/26 12:21:48;;;;;;;6.00;1.80;;;;;;;23.82;32.15;98745.11;25144;1315;3026543;-68
2022/04/26 12:24:27;;;;;;;7.10;1.20;;;;;;;23.93;31.68;98732.52;25118;1316;3054532;-71
2022/04/26 12:27:02;;;;;;;3.50;1.30;;;;;;;24.08;31.34;98738.05;25125;1314;3058409;-69
2022/04/26 12:29:35;;;;;;;4.40;1.10;;;;;;;24.05;31.37;98750.09;25157;1316;3052838;-70
2022/04/26 12:32:18;;;;;;;3.50;1.30;;;;;;;23.99;31.17;98731.33;25121;1316;3055092;-69
2022/04/26 12:34:53;;;;;;;5.70;1.60;;;;;;;24.10;31.23;98741.91;25161;1316;3050996;-68
2022/04/26 12:37:26;;;;;;;5.70;1.50;;;;;;;24.37;30.99;98720.68;25175;1316;3071497;-70
2022/04/26 12:39:58;;;;;;;11.70;1.60;;;;;;;24.52;30.77;98732.80;25157;1314;3051822;-71
2022/04/26 12:42:28;;;;;;;2.90;1.50;;;;;;;24.43;31.20;98736.02;25180;1316;3026458;-70
2022/04/26 12:44:57;;;;;;;4.10;1.40;;;;;;;24.19;31.80;98739.52;25110;1316;3026575;-70
2022/04/26 12:50:33;;;;;;;8.90;2.00;;;;;;;24.46;31.81;98734.58;25173;1316;3055619;-70
2022/04/26 12:53:20;;;;;;;5.10;1.40;;;;;;;24.36;31.60;98747.98;25112;1316;3052384;-71
2022/04/26 12:55:50;;;;;;;4.60;1.20;;;;;;;24.40;32.11;98733.02;25158;1315;3056195;-70
2022/04/26 12:58:39;;;;;;;8.10;1.70;;;;;;;24.46;32.48;98734.59;25123;1316;3026450;-70
2022/04/26 13:01:13;;;;;;;9.00;1.70;;;;;;;24.66;31.86;98724.47;25097;1316;3056055;-70
2022/04/26 13:03:47;;;;;;;7.40;1.70;;;;;;;24.92;31.85;98723.08;25074;1315;3054968;-70
2022/04/26 13:06:18;;;;;;;6.50;1.50;;;;;;;25.02;31.92;98733.39;25120;1316;3026510;-70
2022/04/26 13:08:48;;;;;;;4.00;1.20;;;;;;;25.03;31.69;98737.89;25205;1315;3027340;-71
2022/04/26 13:11:18;;;;;;;5.10;1.50;;;;;;;24.82;31.56;98735.13;25101;1316;3026539;-72
2022/04/26 13:13:49;;;;;;;4.30;1.20;;;;;;;24.61;31.97;98740.14;25162;1316;3026507;-70
2022/04/26 13:16:19;;;;;;;3.30;1.40;;;;;;;24.64;32.57;98733.91;25176;1316;3027371;-72
2022/04/26 13:18:51;;;;;;;5.60;1.60;;;;;;;25.04;32.31;98726.85;25130;1316;3027120;-71
2022/04/26 13:21:20;;;;;;;5.10;1.40;;;;;;;25.24;31.87;98726.66;25125;1315;3026502;-71
2022/04/26 13:24:03;;;;;;;3.50;1.10;;;;;;;25.29;31.76;98721.58;25140;1316;3054318;-71
2022/04/26 13:26:35;;;;;;;6.30;1.20;;;;;;;25.39;31.28;98728.81;25157;1316;3027102;-70
2022/04/26 13:29:05;;;;;;;2.30;0.80;;;;;;;25.28;31.00;98740.40;25113;1316;3026421;-72
2022/04/26 13:31:35;;;;;;;5.50;1.00;;;;;;;25.32;30.81;98730.27;25195;1315;3026485;-71
2022/04/26 13:34:05;;;;;;;3.60;0.90;;;;;;;25.10;30.26;98734.80;25152;1316;3029586;-71
2022/04/26 13:36:36;;;;;;;4.40;1.20;;;;;;;24.96;29.92;98727.21;25159;1316;3026336;-69
2022/04/26 13:39:05;;;;;;;5.50;1.70;;;;;;;25.17;30.20;98727.23;25140;1316;3026851;-72
2022/04/26 13:41:35;;;;;;;2.50;1.10;;;;;;;25.30;30.35;98728.15;25177;1316;3054091;-71
2022/04/26 13:44:06;;;;;;;3.70;1.10;;;;;;;25.42;30.56;98738.65;25168;1316;3026942;-72
2022/04/26 13:46:36;;;;;;;14.90;1.30;;;;;;;25.36;30.78;98740.26;25093;1316;3026397;-73
2022/04/26 13:49:06;;;;;;;5.90;1.30;;;;;;;24.93;31.31;98735.67;25163;1316;3052577;-69
2022/04/26 13:51:36;;;;;;;5.00;1.10;;;;;;;24.72;31.80;98737.02;25142;1315;3027001;-72
2022/04/26 13:54:09;;;;;;;4.60;0.90;;;;;;;24.93;31.59;98745.52;25116;1316;3026602;-72
2022/04/26 13:56:38;;;;;;;5.50;1.30;;;;;;;24.88;31.62;98732.45;25142;1316;3026316;-71
2022/04/26 13:59:10;;;;;;;7.50;1.20;;;;;;;25.09;31.65;98732.45;25190;1316;3058513;-70
2022/04/26 14:01:41;;;;;;;4.70;1.10;;;;;;;25.39;31.01;98736.55;25121;1316;3027489;-70
2022/04/26 14:04:10;;;;;;;3.50;1.00;;;;;;;25.20;30.73;98740.14;25172;1316;3026584;-69
2022/04/26 14:06:44;;;;;;;5.30;1.60;;;;;;;25.06;30.90;98732.94;25184;1315;3055902;-71
2022/04/26 14:09:13;;;;;;;6.10;1.00;;;;;;;25.30;30.88;98741.11;25156;1315;3026980;-70
2022/04/26 14:11:45;;;;;;;4.50;1.20;;;;;;;24.95;31.26;98734.29;25193;1316;3028752;-72
2022/04/26 14:22:43;;;;;;;4.10;1.30;;;;;;;25.39;30.30;98734.74;25208;1315;3055292;-72
2022/04/26 14:25:14;;;;;;;7.10;1.20;;;;;;;25.55;30.30;98744.69;25163;1316;3026694;-71
2022/04/26 14:27:45;;;;;;;2.80;1.00;;;;;;;25.61;30.10;98747.36;25101;1316;3030100;-71
2022/04/26 14:30:15;;;;;;;3.80;1.20;;;;;;;25.75;30.14;98740.73;25163;1316;3051464;-71
2022/04/26 14:32:48;;;;;;;5.40;1.40;;;;;;;25.93;30.35;98748.85;25139;1315;3027026;-71
2022/04/26 14:35:22;;;;;;;3.60;1.10;;;;;;;26.00;30.03;98754.85;25174;1315;3058909;-72
2022/04/26 14:37:53;;;;;;;4.80;1.20;;;;;;;25.86;30.26;98748.27;25149;1315;3025863;-72
2022/04/26 14:40:22;;;;;;;4.70;1.10;;;;;;;25.79;30.30;98753.02;25165;1314;3052811;-73
2022/04/26 14:42:54;;;;;;;10.60;1.10;;;;;;;25.67;30.63;98750.27;25152;1316;3026736;-72
2022/04/26 14:45:23;;;;;;;4.30;1.10;;;;;;;25.67;30.25;98757.33;25123;1316;3028360;-71
2022/04/26 14:47:54;;;;;;;7.80;1.10;;;;;;;25.74;30.25;98756.70;25176;1316;3026434;-71
2022/04/26 14:50:23;;;;;;;7.60;1.40;;;;;;;25.74;30.49;98750.73;25162;1316;3026510;-71
2022/04/26 14:52:53;;;;;;;9.40;1.50;;;;;;;25.85;30.30;98748.58;25086;1315;3051551;-71
2022/04/26 14:55:26;;;;;;;4.20;1.60;;;;;;;26.05;29.97;98753.52;25177;1316;3054686;-70
2022/04/26 14:57:55;;;;;;;9.00;1.30;;;;;;;26.20;29.79;98751.73;25110;1314;3026988;-73
2022/04/26 15:00:24;;;;;;;5.50;1.20;;;;;;;26.43;28.81;98752.77;25159;1316;3048845;-71
2022/04/26 15:02:57;;;;;;;5.30;1.40;;;;;;;26.73;28.15;98752.52;25181;1316;3027637;-71
2022/04/26 15:05:27;;;;;;;6.70;1.10;;;;;;;26.37;27.35;98758.05;25131;1316;3026611;-71
2022/04/26 15:10:45;;;;;;;4.60;1.10;;;;;;;26.11;27.28;98767.80;25120;1315;3055228;-70
2022/04/26 15:18:53;;;;;;;5.80;1.20;;;;;;;25.36;29.27;98769.38;25123;1316;3049761;-71
2022/04/26 15:21:26;;;;;;;4.30;1.30;;;;;;;25.70;28.99;98767.59;25090;1315;3054840;-72
2022/04/26 15:23:58;;;;;;;6.30;1.20;;;;;;;25.71;28.90;98771.60;25156;1315;3026340;-71
2022/04/26 15:26:27;;;;;;;6.80;1.10;;;;;;;25.79;28.59;98771.09;25071;1315;3029037;-73
2022/04/26 15:28:57;;;;;;;7.60;1.40;;;;;;;26.12;28.29;98773.21;25141;1315;3054237;-74
2022/04/26 15:31:26;;;;;;;3.70;1.20;;;;;;;26.05;28.18;98778.35;25151;1315;3026558;-73
2022/04/26 15:33:57;;;;;;;4.60;0.90;;;;;;;25.78;28.28;98779.94;25131;1315;3028427;-72
2022/04/26 15:36:26;;;;;;;9.80;1.20;;;;;;;25.48;28.71;98783.20;25178;1316;3026338;-73
2022/04/26 15:38:58;;;;;;;7.00;1.20;;;;;;;25.47;28.84;98776.17;25123;1316;3050781;-73
2022/04/26 15:41:32;;;;;;;;;;;;;;;25.19;29.33;98780.62;25134;1316;3056073;-72
2022/04/26 15:44:05;;;;;;;8.70;1.60;;;;;;;25.06;29.72;98783.54;25165;1315;3050376;-72
2022/04/26 15:46:34;;;;;;;8.30;1.20;;;;;;;25.20;29.73;98787.41;25136;1316;3026696;-71
2022/04/26 15:49:04;;;;;;;8.50;1.50;;;;;;;25.16;29.99;98785.61;25156;1316;3028534;-73
2022/04/26 15:51:35;;;;;;;5.70;1.10;;;;;;;25.22;30.20;98782.48;25083;1316;3026732;-72
2022/04/26 15:54:05;;;;;;;5.30;1.30;;;;;;;25.10;30.52;98790.61;25108;1316;3027139;-71
2022/04/26 15:56:39;;;;;;;;;;;;;;;25.15;30.83;98792.11;25166;1315;3052127;-72
2022/04/26 15:59:10;;;;;;;8.80;1.30;;;;;;;24.95;31.13;98794.88;25350;1316;3026432;-70
2022/04/26 16:01:41;;;;;;;6.80;1.40;;;;;;;25.00;31.19;98792.12;25628;1314;3026693;-68
2022/04/26 16:04:10;;;;;;;5.60;1.90;;;;;;;24.76;31.58;98800.52;25694;1315;3026353;-69
2022/04/26 16:06:41;;;;;;;8.10;1.90;;;;;;;24.58;32.01;98802.54;25270;1316;3051117;-71